Airfield :
LOGIN :

Register | Disclaimer

   EN    FR    IT 

 










Legend :    VFR   Marginal VFR   IFR   Intensive IFR   Very Intensive IFR
Visi :
Ceiling :
>= 8 km
>= 3000ft
5 to 8 km
1000 to 3000 ft
1500m to 5 km
500 to 1000 ft
800 to 1500m
200 to 500 ft
< 800m
< 200 ft
Symbols :   Thunderstorms  Fog  Heavy snow  Heavy precipitations  Wind > 20 kt
SIGMETs :     Misc.  Thunderstorms  Icing  Turbulence  Mountain Waves  Volcanic Ashes







- Airport Elevation : 609 ft
- IATA code : BJZ


LEBZ - Badajoz

CURRENT METAR :
  • 181800Z 16007KT 130V190 9999 SCT040TCU 16/13 Q1009

EXPIRED METARs :
  • 181746Z 15010KT 9999 VCTS SCT035CB 16/13 Q1009 RERA
  • 181725Z 14020KT 100V160 5000 TS SHRA BKN028CB 16/13 Q1009
  • 181714Z 12025KT 9999 BKN028CB 18/13 Q1009
  • 181700Z 12007KT 070V160 9999 FEW048TCU 21/16 Q1008
  • 181600Z 02007KT 360V060 9999 FEW048TCU 21/14 Q1007

TAF AMD TAF LEBZ
Valid from the 18 at 18:00 until the 19 at 18:00 UTC


181717Z 1818/1918 08005KT 9999 FEW035 TX20/1915Z TN12/1906Z
TEMPO 1818/1820 12020G30KT 4000 SHRA SCT035TCU BKN040
PROB30
TEMPO 1818/1820 3000 TSRA SCT030CB
PROB40
TEMPO 1903/1912 4000 RA BKN025
No reported NOTAMs for that airfield.
3 SIGMETs reported for the Madrid FIR (LECM) :
 
Embedded thunderstorms
LECM SIGMET 16 VALID 181800/182000 LEVA
LECM MADRID FIR/UIR EMBD TS OBS AT 1750Z W OF LINE N3920 W00540 - N3750 W00610 TOP FL320 MOV W 20KT NC=
Embedded thunderstorms
LECM SIGMET 13 VALID 181619/182800 LEVA
LECM MADRID FIR/UIR EMBD TS OBS AT 1619Z WI N3930 W007 - N3950 W00310 - N3830 W003 - N3810 W007 - N3930 W007 TOP FL320 MOV ESE 20KT NC=
Severe turbulence
LECM SIGMET 12 VALID 181500/181900 LEVA
LECM MADRID FIR/UIR SEV TURB OBS AT 1452Z S OF LINE N3630 W00720 - N3710 W00150 FL200/320 MOV E 20KT NC=



MET'MAP, your aeronautical weather chart ! - Copyright ORBIFLY December 2007 - Disclaimer

ORBIFLY MET'MAP TEAM :

Programming & Development : Alexandra Zaïnal
Concept & Development : Baudouin d'Aumeries
Co-Development & Prog : Marc-Olivier Méhu
Technical & hardware support : Manuel Goepfert

Contact : metmap@orbifly.com




SOURCES & CREDITS :

   NOAA